createdAt,value
2019-01-05T00:02:32.699Z,43.03
2019-01-05T00:06:57.320Z,40.10
2019-01-05T00:13:18.343Z,41.60
2019-01-05T00:18:05.141Z,34.10
2019-01-05T00:22:18.745Z,33.80
2019-01-05T00:27:33.094Z,38.40
2019-01-05T00:32:01.758Z,39.10
2019-01-05T00:36:20.417Z,32.17
2019-01-05T00:40:34.034Z,39.63
2019-01-05T00:44:47.711Z,35.77
2019-01-05T00:49:04.393Z,31.70
2019-01-05T00:53:18.712Z,29.63
2019-01-05T00:57:35.190Z,33.30
2019-01-05T01:02:06.809Z,22.13
2019-01-05T01:06:29.376Z,42.33
2019-01-05T01:10:43.099Z,24.23
2019-01-05T01:14:57.535Z,28.33
2019-01-05T01:20:19.959Z,29.87
2019-01-05T01:24:35.370Z,29.63
2019-01-05T01:28:50.770Z,25.00
2019-01-05T01:33:09.305Z,30.90
2019-01-05T01:37:22.835Z,23.13
2019-01-05T01:41:49.344Z,39.97
2019-01-05T01:46:10.748Z,20.77
2019-01-05T01:50:24.309Z,23.83
2019-01-05T01:54:41.837Z,31.30
2019-01-05T01:58:55.399Z,21.00
2019-01-05T02:03:09.566Z,23.93
2019-01-05T02:07:23.240Z,22.70
2019-01-05T02:11:43.174Z,30.87
2019-01-05T02:16:02.671Z,18.90
2019-01-05T02:23:23.871Z,21.33
2019-01-05T02:29:54.393Z,25.53
2019-01-05T02:36:24.017Z,23.47
2019-01-05T02:45:53.688Z,20.87
2019-01-05T02:50:20.558Z,18.73
2019-01-05T02:54:59.611Z,15.90
2019-01-05T03:00:34.771Z,20.07
2019-01-05T03:07:00.760Z,15.20
2019-01-05T03:11:28.802Z,17.63
2019-01-05T03:16:50.639Z,23.03
2019-01-05T03:21:19.950Z,17.83
2019-01-05T03:26:52.038Z,18.50
2019-01-05T03:32:23.245Z,13.90
2019-01-05T03:36:51.497Z,13.47
2019-01-05T03:42:35.663Z,12.13
2019-01-05T03:47:00.179Z,14.03
2019-01-05T03:51:31.784Z,16.80
2019-01-05T03:55:55.498Z,14.00
2019-01-05T04:00:21.819Z,13.37
2019-01-05T04:04:58.992Z,9.07
2019-01-05T04:09:31.416Z,13.37
2019-01-05T04:14:32.795Z,10.50
2019-01-05T04:18:58.635Z,11.60
2019-01-05T04:23:28.640Z,11.80
2019-01-05T04:27:58.165Z,17.53
2019-01-05T04:32:39.511Z,10.10
2019-01-05T04:37:08.215Z,10.40
2019-01-05T04:42:06.538Z,12.90
2019-01-05T04:46:35.259Z,14.63
2019-01-05T04:55:08.098Z,8.07
2019-01-05T05:00:34.506Z,7.53
2019-01-05T05:06:38.826Z,10.77
2019-01-05T05:11:04.945Z,8.37
2019-01-05T05:15:39.445Z,14.43
2019-01-05T05:20:41.274Z,12.43
2019-01-05T05:25:05.305Z,8.70
2019-01-05T05:29:23.254Z,10.70
2019-01-05T05:33:49.943Z,8.90
2019-01-05T05:38:26.253Z,8.70
2019-01-05T05:42:53.167Z,10.43
2019-01-05T05:48:28.535Z,13.13
2019-01-05T05:53:22.451Z,7.07
2019-01-05T06:01:58.991Z,8.50
2019-01-05T06:06:25.615Z,6.30
2019-01-05T06:10:53.020Z,7.70
2019-01-05T06:15:23.364Z,4.17
2019-01-05T06:20:24.110Z,6.00
2019-01-05T06:24:48.937Z,10.13
2019-01-05T06:29:14.502Z,4.20
2019-01-05T06:33:36.870Z,8.30
2019-01-05T06:38:36.315Z,8.83
2019-01-05T06:45:10.226Z,5.20
2019-01-05T06:51:21.454Z,9.30
2019-01-05T06:57:57.108Z,8.20
2019-01-05T07:02:23.808Z,4.57
2019-01-05T07:08:51.762Z,4.20
2019-01-05T07:17:32.432Z,14.38
2019-01-05T07:22:02.228Z,6.93
2019-01-05T07:26:21.255Z,2.87
2019-01-05T07:30:46.234Z,6.23
2019-01-05T07:35:22.636Z,7.70
2019-01-05T07:40:11.922Z,4.27
2019-01-05T07:45:35.444Z,8.50
2019-01-05T07:50:03.283Z,13.40
2019-01-05T07:56:37.963Z,8.90
2019-01-05T08:02:13.663Z,6.77
2019-01-05T08:09:43.920Z,11.40
2019-01-05T08:15:16.890Z,12.53
2019-01-05T08:20:14.132Z,6.47
2019-01-05T08:25:11.272Z,9.13
2019-01-05T08:30:39.979Z,17.50
2019-01-05T08:37:19.838Z,9.70
2019-01-05T08:43:47.105Z,11.13
2019-01-05T08:48:21.892Z,7.93
2019-01-05T08:53:50.734Z,9.70
2019-01-05T08:58:33.470Z,8.63
2019-01-05T09:03:06.709Z,11.23
2019-01-05T09:10:46.978Z,7.73
2019-01-05T09:16:15.927Z,19.83
2019-01-05T09:21:53.607Z,13.47
2019-01-05T09:26:45.134Z,11.43
2019-01-05T09:32:11.060Z,11.20
2019-01-05T09:36:42.611Z,16.43
2019-01-05T09:41:04.060Z,6.47
2019-01-05T09:46:32.715Z,9.10
2019-01-05T09:51:29.144Z,12.27
2019-01-05T09:55:56.507Z,11.13
2019-01-05T10:02:35.297Z,7.63
2019-01-05T10:07:02.832Z,6.00
2019-01-05T10:11:32.281Z,10.73
2019-01-05T10:18:03.372Z,7.97
2019-01-05T10:22:33.535Z,8.40
2019-01-05T10:26:59.030Z,18.97
2019-01-05T10:31:29.839Z,10.13
2019-01-05T10:35:56.213Z,13.70
2019-01-05T10:42:41.129Z,11.77
2019-01-05T10:47:23.843Z,10.13
2019-01-05T10:51:49.880Z,8.10
2019-01-05T10:56:26.532Z,7.60
2019-01-05T11:01:24.904Z,12.30
2019-01-05T11:06:10.881Z,8.97
2019-01-05T11:12:39.808Z,9.57
2019-01-05T11:17:05.579Z,14.60
2019-01-05T11:22:34.169Z,9.30
2019-01-05T11:27:05.091Z,14.37
2019-01-05T11:33:33.364Z,18.20
2019-01-05T11:38:59.969Z,9.43
2019-01-05T11:45:31.866Z,9.57
2019-01-05T11:49:55.818Z,15.20
2019-01-05T11:54:28.479Z,12.33
2019-01-05T11:59:55.507Z,11.10
2019-01-05T12:04:23.934Z,7.87
2019-01-05T12:10:58.880Z,16.33
2019-01-05T12:15:21.312Z,10.80
2019-01-05T12:20:00.158Z,11.70
2019-01-05T12:24:24.081Z,9.97
2019-01-05T12:29:46.989Z,11.60
2019-01-05T12:34:41.722Z,11.17
2019-01-05T12:40:00.151Z,11.50
2019-01-05T12:46:35.338Z,14.43
2019-01-05T12:54:08.899Z,8.57
2019-01-05T13:00:46.879Z,11.03
2019-01-05T13:06:17.773Z,10.83
2019-01-05T13:10:50.173Z,5.80
2019-01-05T13:15:18.559Z,8.80
2019-01-05T13:19:43.385Z,7.80
2019-01-05T13:24:36.319Z,6.70
2019-01-05T13:29:15.473Z,9.90
2019-01-05T13:33:39.686Z,6.07
2019-01-05T13:38:07.262Z,4.00
2019-01-05T13:44:13.558Z,7.30
2019-01-05T13:48:37.333Z,5.30
2019-01-05T13:54:02.661Z,5.67
2019-01-05T13:58:18.073Z,7.37
2019-01-05T14:04:36.076Z,8.77
2019-01-05T14:08:49.701Z,6.40
2019-01-05T14:13:09.134Z,9.17
2019-01-05T14:17:21.644Z,4.07
2019-01-05T14:21:34.127Z,12.93
2019-01-05T14:25:47.739Z,5.53
2019-01-05T14:30:08.313Z,8.30
2019-01-05T14:36:30.089Z,5.77
2019-01-05T14:40:42.539Z,11.23
2019-01-05T14:46:57.959Z,13.03
2019-01-05T14:51:16.596Z,7.67
2019-01-05T14:55:30.178Z,9.10
2019-01-05T14:59:45.354Z,6.87
2019-01-05T15:06:00.167Z,11.27
2019-01-05T15:10:12.666Z,8.20
2019-01-05T15:16:32.229Z,9.80
2019-01-05T15:20:46.555Z,6.83
2019-01-05T15:25:10.051Z,8.33
2019-01-05T15:29:23.778Z,8.55
2019-01-05T15:33:37.633Z,6.93
2019-01-05T15:37:51.182Z,10.47
2019-01-05T15:42:04.754Z,8.10
2019-01-05T15:46:18.446Z,15.93
2019-01-05T15:50:32.042Z,5.97
2019-01-05T15:54:59.513Z,6.67
2019-01-05T16:01:16.771Z,13.00
2019-01-05T16:05:32.268Z,10.33
2019-01-05T16:09:47.653Z,11.47
2019-01-05T16:14:01.391Z,18.13
2019-01-05T16:18:14.966Z,10.47
2019-01-05T16:22:30.349Z,17.47
2019-01-05T16:26:43.894Z,11.10
2019-01-05T16:30:57.246Z,18.70
2019-01-05T16:35:24.931Z,16.80
2019-01-05T16:39:39.403Z,14.30
2019-01-05T16:43:51.940Z,15.23
2019-01-05T16:48:05.588Z,15.13
2019-01-05T16:52:19.320Z,21.07
2019-01-05T16:56:33.727Z,15.15
2019-01-05T17:01:22.646Z,15.33
2019-01-05T17:05:32.019Z,11.50
2019-01-05T17:11:50.075Z,9.13
2019-01-05T17:16:03.610Z,14.87
2019-01-05T17:20:17.180Z,14.80
2019-01-05T17:26:38.817Z,15.20
2019-01-05T17:30:52.192Z,14.10
2019-01-05T17:35:04.662Z,12.57
2019-01-05T17:40:17.651Z,13.17
2019-01-05T17:44:31.255Z,12.30
2019-01-05T17:49:51.186Z,16.87
2019-01-05T17:54:04.944Z,13.03
2019-01-05T17:59:17.150Z,12.70
2019-01-05T18:04:31.367Z,16.80
2019-01-05T18:08:44.863Z,16.80
2019-01-05T18:13:00.430Z,21.03
2019-01-05T18:17:14.077Z,14.73
2019-01-05T18:21:27.577Z,14.17
2019-01-05T18:25:47.130Z,18.57
2019-01-05T18:30:15.839Z,14.07
2019-01-05T18:34:35.445Z,14.50
2019-01-05T18:38:51.031Z,13.20
2019-01-05T18:43:06.587Z,16.90
2019-01-05T18:47:37.331Z,14.97
2019-01-05T18:51:50.902Z,12.63
2019-01-05T18:56:04.419Z,18.97
2019-01-05T19:00:37.996Z,17.63
2019-01-05T19:04:51.493Z,13.60
2019-01-05T19:09:06.927Z,15.70
2019-01-05T19:13:20.272Z,15.10
2019-01-05T19:17:33.582Z,13.63
2019-01-05T19:21:56.085Z,13.60
2019-01-05T19:26:09.560Z,14.90
2019-01-05T19:31:20.984Z,15.37
2019-01-05T19:37:43.307Z,12.27
2019-01-05T19:41:59.772Z,20.40
2019-01-05T19:46:13.225Z,21.13
2019-01-05T19:50:30.742Z,24.43
2019-01-05T19:54:48.193Z,15.53
2019-01-05T19:59:01.908Z,15.80
2019-01-05T20:03:15.611Z,16.90
2019-01-05T20:07:29.187Z,15.53
2019-01-05T20:11:42.911Z,20.20
2019-01-05T20:18:00.591Z,17.30
2019-01-05T20:22:14.250Z,15.87
2019-01-05T20:26:38.659Z,28.63
2019-01-05T20:30:54.160Z,19.03
2019-01-05T20:35:07.658Z,17.43
2019-01-05T20:40:21.975Z,14.37
2019-01-05T20:44:36.435Z,13.97
2019-01-05T20:49:07.161Z,16.90
2019-01-05T20:53:20.890Z,16.03
2019-01-05T20:57:34.334Z,16.10
2019-01-05T21:01:47.889Z,20.43
2019-01-05T21:08:05.915Z,15.43
2019-01-05T21:12:18.402Z,14.90
2019-01-05T21:17:29.307Z,17.30
2019-01-05T21:21:42.692Z,17.43
2019-01-05T21:25:57.068Z,18.87
2019-01-05T21:30:11.229Z,16.67
2019-01-05T21:34:23.702Z,18.13
2019-01-05T21:38:42.033Z,22.90
2019-01-05T21:43:07.641Z,18.93
2019-01-05T21:47:51.331Z,22.67
2019-01-05T21:52:04.898Z,14.30
2019-01-05T21:56:32.345Z,18.20
2019-01-05T22:00:45.961Z,19.03
2019-01-05T22:05:00.306Z,13.43
2019-01-05T22:09:12.771Z,14.38
2019-01-05T22:13:29.281Z,17.40
2019-01-05T22:18:44.625Z,19.63
2019-01-05T22:22:58.231Z,21.07
2019-01-05T22:27:12.785Z,16.80
2019-01-05T22:31:31.145Z,14.93
2019-01-05T22:35:44.679Z,19.60
2019-01-05T22:39:58.342Z,16.83
2019-01-05T22:44:12.185Z,12.90
2019-01-05T22:48:26.574Z,20.53
2019-01-05T22:52:54.164Z,17.40
2019-01-05T22:57:08.631Z,13.10
2019-01-05T23:01:24.040Z,20.30
2019-01-05T23:05:37.538Z,14.30
2019-01-05T23:11:52.914Z,14.63
2019-01-05T23:17:09.757Z,16.47
2019-01-05T23:21:24.047Z,17.47
2019-01-05T23:27:45.150Z,16.47
2019-01-05T23:32:29.763Z,16.07
2019-01-05T23:36:42.279Z,13.40
2019-01-05T23:40:56.029Z,15.33
2019-01-05T23:45:14.419Z,22.40
2019-01-05T23:49:30.734Z,14.47
2019-01-05T23:53:49.310Z,14.97
2019-01-05T23:58:17.010Z,11.75
